createdAt,value
2022-09-15T00:02:22.240Z,100.00
2022-09-15T00:04:48.654Z,100.00
2022-09-15T00:07:15.865Z,100.00
2022-09-15T00:09:42.272Z,100.00
2022-09-15T00:12:08.688Z,100.00
2022-09-15T00:14:35.105Z,100.00
2022-09-15T00:17:01.620Z,100.00
2022-09-15T00:19:28.107Z,100.00
2022-09-15T00:21:54.521Z,100.00
2022-09-15T00:24:21.007Z,100.00
2022-09-15T00:26:47.463Z,100.00
2022-09-15T00:29:13.900Z,100.00
2022-09-15T00:31:40.289Z,100.00
2022-09-15T00:34:07.189Z,100.00
2022-09-15T00:36:34.018Z,100.00
2022-09-15T00:39:00.983Z,100.00
2022-09-15T00:41:27.785Z,100.00
2022-09-15T00:44:00.658Z,100.00
2022-09-15T00:46:40.013Z,100.00
2022-09-15T00:49:29.523Z,100.00
2022-09-15T00:52:03.880Z,100.00
2022-09-15T00:54:41.981Z,100.00
2022-09-15T00:57:14.335Z,100.00
2022-09-15T00:59:42.690Z,100.00
2022-09-15T01:02:22.350Z,100.00
2022-09-15T01:04:56.012Z,100.00
2022-09-15T01:07:32.687Z,100.00
2022-09-15T01:10:02.762Z,100.00
2022-09-15T01:12:29.185Z,100.00
2022-09-15T01:14:55.680Z,100.00
2022-09-15T01:17:49.879Z,100.00
2022-09-15T01:21:07.442Z,100.00
2022-09-15T01:23:36.912Z,100.00
2022-09-15T01:26:36.691Z,100.00
2022-09-15T01:29:36.910Z,100.00
2022-09-15T01:32:28.323Z,100.00
2022-09-15T01:35:20.442Z,100.00
2022-09-15T01:37:53.485Z,100.00
2022-09-15T01:40:22.990Z,100.00
2022-09-15T01:42:51.048Z,100.00
2022-09-15T01:45:29.069Z,100.00
2022-09-15T01:47:58.512Z,100.00
2022-09-15T01:50:31.488Z,100.00
2022-09-15T01:53:02.798Z,100.00
2022-09-15T01:56:00.874Z,100.00
2022-09-15T01:58:27.303Z,100.00
2022-09-15T02:01:00.234Z,100.00
2022-09-15T02:03:35.064Z,100.00
2022-09-15T02:06:07.233Z,100.00
2022-09-15T02:08:49.856Z,100.00
2022-09-15T02:11:19.681Z,100.00
2022-09-15T02:13:59.840Z,100.00
2022-09-15T02:16:32.127Z,100.00
2022-09-15T02:19:34.314Z,100.00
2022-09-15T02:22:08.048Z,100.00
2022-09-15T02:24:40.862Z,100.00
2022-09-15T02:27:22.176Z,100.00
2022-09-15T02:29:52.538Z,100.00
2022-09-15T02:32:23.645Z,100.00
2022-09-15T02:34:53.283Z,100.00
2022-09-15T02:37:21.886Z,100.00
2022-09-15T02:39:58.025Z,100.00
2022-09-15T02:42:30.246Z,100.00
2022-09-15T02:44:57.690Z,100.00
2022-09-15T02:47:25.288Z,100.00
2022-09-15T02:49:52.022Z,100.00
2022-09-15T02:52:18.457Z,100.00
2022-09-15T02:54:44.862Z,100.00
2022-09-15T02:57:11.528Z,100.00
2022-09-15T02:59:56.379Z,100.00
2022-09-15T03:02:23.542Z,100.00
2022-09-15T03:04:50.462Z,100.00
2022-09-15T03:07:18.504Z,100.00
2022-09-15T03:09:45.285Z,100.00
2022-09-15T03:12:11.734Z,100.00
2022-09-15T03:14:38.317Z,100.00
2022-09-15T03:17:04.986Z,100.00
2022-09-15T03:19:31.783Z,100.00
2022-09-15T03:21:58.192Z,100.00
2022-09-15T03:24:24.574Z,100.00
2022-09-15T03:26:50.996Z,100.00
2022-09-15T03:29:17.492Z,100.00
2022-09-15T03:31:44.150Z,100.00
2022-09-15T03:34:10.670Z,100.00
2022-09-15T03:36:38.225Z,100.00
2022-09-15T03:39:04.661Z,100.00
2022-09-15T03:41:31.040Z,100.00
2022-09-15T03:43:57.700Z,100.00
2022-09-15T03:46:24.136Z,100.00
2022-09-15T03:48:50.530Z,100.00
2022-09-15T03:51:16.964Z,100.00
2022-09-15T03:53:43.413Z,100.00
2022-09-15T03:56:26.245Z,100.00
2022-09-15T03:58:53.232Z,100.00
2022-09-15T04:01:20.811Z,100.00
2022-09-15T04:03:50.936Z,100.00
2022-09-15T04:06:19.750Z,100.00
2022-09-15T04:08:46.594Z,100.00
2022-09-15T04:11:13.910Z,100.00
2022-09-15T04:13:41.996Z,100.00
2022-09-15T04:16:12.654Z,100.00
2022-09-15T04:18:39.219Z,100.00
2022-09-15T04:21:13.233Z,100.00
2022-09-15T04:23:41.115Z,100.00
2022-09-15T04:26:14.345Z,100.00
2022-09-15T04:28:40.808Z,100.00
2022-09-15T04:31:12.800Z,100.00
2022-09-15T04:33:41.093Z,100.00
2022-09-15T04:36:21.085Z,100.00
2022-09-15T04:38:48.110Z,100.00
2022-09-15T04:41:15.125Z,100.00
2022-09-15T04:43:43.298Z,100.00
2022-09-15T04:46:11.268Z,100.00
2022-09-15T04:48:37.907Z,100.00
2022-09-15T04:51:06.698Z,100.00
2022-09-15T04:53:33.761Z,100.00
2022-09-15T04:56:08.358Z,100.00
2022-09-15T04:58:39.933Z,100.00
2022-09-15T05:01:18.308Z,100.00
2022-09-15T05:03:46.463Z,100.00
2022-09-15T05:06:15.584Z,100.00
2022-09-15T05:08:42.085Z,100.00
2022-09-15T05:11:11.724Z,100.00
2022-09-15T05:13:40.126Z,100.00
2022-09-15T05:16:09.681Z,100.00
2022-09-15T05:18:36.176Z,100.00
2022-09-15T05:21:04.636Z,100.00
2022-09-15T05:23:33.145Z,100.00
2022-09-15T05:26:02.329Z,100.00
2022-09-15T05:28:28.966Z,100.00
2022-09-15T05:30:55.801Z,100.00
2022-09-15T05:33:23.571Z,100.00
2022-09-15T05:35:55.046Z,100.00
2022-09-15T05:38:22.180Z,100.00
2022-09-15T05:40:49.203Z,100.00
2022-09-15T05:43:16.377Z,100.00
2022-09-15T05:45:42.775Z,100.00
2022-09-15T05:48:13.483Z,100.00
2022-09-15T05:50:49.274Z,100.00
2022-09-15T05:53:15.683Z,100.00
2022-09-15T05:55:42.429Z,100.00
2022-09-15T05:58:08.847Z,100.00
2022-09-15T06:00:35.939Z,100.00
2022-09-15T06:03:02.744Z,100.00
2022-09-15T06:05:29.753Z,100.00
2022-09-15T06:07:56.810Z,100.00
2022-09-15T06:10:24.962Z,99.57
2022-09-15T06:12:55.880Z,99.55
2022-09-15T06:15:23.379Z,98.92
2022-09-15T06:17:49.888Z,99.54
2022-09-15T06:20:16.866Z,99.72
2022-09-15T06:22:43.344Z,98.82
2022-09-15T06:25:10.928Z,98.72
2022-09-15T06:27:37.364Z,98.93
2022-09-15T06:30:04.487Z,98.53
2022-09-15T06:32:30.973Z,98.18
2022-09-15T06:34:57.774Z,99.25
2022-09-15T06:37:24.233Z,98.27
2022-09-15T06:39:51.127Z,97.66
2022-09-15T06:42:17.590Z,97.40
2022-09-15T06:44:43.992Z,97.51
2022-09-15T06:47:10.732Z,96.97
2022-09-15T06:49:37.150Z,96.50
2022-09-15T06:52:05.090Z,96.65
2022-09-15T06:54:31.567Z,96.28
2022-09-15T06:56:57.999Z,96.93
2022-09-15T06:59:24.632Z,95.91
2022-09-15T07:01:54.972Z,96.50
2022-09-15T07:04:23.050Z,96.10
2022-09-15T07:06:50.455Z,96.20
2022-09-15T07:09:17.052Z,95.47
2022-09-15T07:11:43.519Z,94.05
2022-09-15T07:14:10.892Z,94.33
2022-09-15T07:16:37.336Z,93.75
2022-09-15T07:19:05.800Z,93.77
2022-09-15T07:21:32.240Z,93.99
2022-09-15T07:23:59.971Z,92.75
2022-09-15T07:26:29.978Z,92.60
2022-09-15T07:28:59.485Z,92.69
2022-09-15T07:31:28.198Z,91.68
2022-09-15T07:33:54.721Z,92.81
2022-09-15T07:36:21.621Z,93.22
2022-09-15T07:38:49.757Z,93.03
2022-09-15T07:41:27.417Z,92.35
2022-09-15T07:43:57.041Z,92.35
2022-09-15T07:46:25.094Z,92.03
2022-09-15T07:48:56.239Z,92.40
2022-09-15T07:51:23.298Z,91.74
2022-09-15T07:53:50.285Z,91.05
2022-09-15T07:56:20.618Z,90.37
2022-09-15T07:58:48.324Z,89.56
2022-09-15T08:01:15.901Z,89.89
2022-09-15T08:03:44.845Z,90.53
2022-09-15T08:06:12.088Z,90.42
2022-09-15T08:08:40.189Z,90.23
2022-09-15T08:11:08.530Z,88.98
2022-09-15T08:13:35.246Z,88.00
2022-09-15T08:16:09.650Z,88.47
2022-09-15T08:18:36.755Z,87.30
2022-09-15T08:21:07.470Z,87.04
2022-09-15T08:23:33.913Z,87.70
2022-09-15T08:26:00.820Z,88.32
2022-09-15T08:28:27.891Z,88.81
2022-09-15T08:31:01.944Z,88.81
2022-09-15T08:33:29.351Z,91.06
2022-09-15T08:36:01.553Z,94.92
2022-09-15T08:38:28.118Z,96.76
2022-09-15T08:41:01.923Z,98.77
2022-09-15T08:43:37.072Z,100.00
2022-09-15T08:46:06.168Z,100.00
2022-09-15T08:49:35.534Z,100.00
2022-09-15T08:52:16.312Z,100.00
2022-09-15T08:54:45.717Z,100.00
2022-09-15T08:57:21.718Z,100.00
2022-09-15T08:59:48.127Z,100.00
2022-09-15T09:02:33.420Z,100.00
2022-09-15T09:05:18.464Z,100.00
2022-09-15T09:07:44.887Z,100.00
2022-09-15T09:10:34.485Z,100.00
2022-09-15T09:13:22.803Z,100.00
2022-09-15T09:16:14.838Z,98.06
2022-09-15T09:18:47.573Z,99.37
2022-09-15T09:21:30.042Z,98.85
2022-09-15T09:24:32.964Z,98.65
2022-09-15T09:26:59.431Z,99.16
2022-09-15T09:29:37.266Z,98.70
2022-09-15T09:32:11.107Z,99.58
2022-09-15T09:34:50.496Z,99.47
2022-09-15T09:37:17.291Z,100.00
2022-09-15T09:39:43.731Z,100.00
2022-09-15T09:42:15.772Z,100.00
2022-09-15T09:44:42.424Z,100.00
2022-09-15T09:47:08.840Z,100.00
2022-09-15T09:49:40.875Z,100.00
2022-09-15T09:52:07.278Z,99.65
2022-09-15T09:54:35.537Z,100.00
2022-09-15T09:57:14.002Z,100.00
2022-09-15T09:59:46.649Z,100.00
2022-09-15T10:02:16.277Z,100.00
2022-09-15T10:04:48.363Z,100.00
2022-09-15T10:07:21.188Z,100.00
2022-09-15T10:09:50.835Z,100.00
2022-09-15T10:12:23.070Z,99.67
2022-09-15T10:14:52.656Z,100.00
2022-09-15T10:17:23.127Z,100.00
2022-09-15T10:19:52.755Z,100.00
2022-09-15T10:22:32.541Z,100.00
2022-09-15T10:25:01.092Z,100.00
2022-09-15T10:27:31.981Z,99.36
2022-09-15T10:30:30.797Z,100.00
2022-09-15T10:33:23.801Z,100.00
2022-09-15T10:35:51.180Z,100.00
2022-09-15T10:38:30.649Z,100.00
2022-09-15T10:41:13.838Z,100.00
2022-09-15T10:43:55.652Z,100.00
2022-09-15T10:46:45.158Z,100.00
2022-09-15T10:49:28.300Z,100.00
2022-09-15T10:52:19.320Z,100.00
2022-09-15T10:55:03.646Z,100.00
2022-09-15T10:57:58.931Z,100.00
2022-09-15T11:00:28.482Z,100.00
2022-09-15T11:03:17.306Z,100.00
2022-09-15T11:06:09.611Z,100.00
2022-09-15T11:08:45.342Z,100.00
2022-09-15T11:11:41.046Z,100.00
2022-09-15T11:14:25.897Z,100.00
2022-09-15T11:17:04.738Z,100.00
2022-09-15T11:19:49.791Z,100.00
2022-09-15T11:22:35.925Z,100.00
2022-09-15T11:25:03.835Z,100.00
2022-09-15T11:27:36.149Z,100.00
2022-09-15T11:30:20.044Z,100.00
2022-09-15T11:32:57.301Z,100.00
2022-09-15T11:35:39.257Z,100.00
2022-09-15T11:38:21.614Z,100.00
2022-09-15T11:40:55.131Z,100.00
2022-09-15T11:43:34.377Z,100.00
2022-09-15T11:46:02.806Z,100.00
2022-09-15T11:48:55.347Z,100.00
2022-09-15T11:51:25.331Z,100.00
2022-09-15T11:54:01.727Z,100.00
2022-09-15T11:56:33.643Z,100.00
2022-09-15T11:59:32.603Z,100.00
2022-09-15T12:02:20.578Z,100.00
2022-09-15T12:05:11.309Z,100.00
2022-09-15T12:07:46.030Z,100.00
2022-09-15T12:10:21.777Z,100.00
2022-09-15T12:12:51.537Z,100.00
2022-09-15T12:15:20.330Z,100.00
2022-09-15T12:17:54.544Z,99.59
2022-09-15T12:20:36.447Z,99.72
2022-09-15T12:23:18.050Z,98.82
2022-09-15T12:26:01.055Z,98.35
2022-09-15T12:28:39.822Z,97.96
2022-09-15T12:31:27.913Z,98.28
2022-09-15T12:34:14.411Z,97.34
2022-09-15T12:36:46.922Z,97.45
2022-09-15T12:39:29.653Z,99.56
2022-09-15T12:42:12.678Z,97.89
2022-09-15T12:44:44.723Z,96.24
2022-09-15T12:47:35.070Z,98.87
2022-09-15T12:50:08.681Z,94.38
2022-09-15T12:52:45.371Z,92.58
2022-09-15T12:55:47.416Z,90.96
2022-09-15T12:58:30.320Z,90.08
2022-09-15T13:01:18.965Z,90.47
2022-09-15T13:03:45.709Z,89.55
2022-09-15T13:06:24.965Z,91.13
2022-09-15T13:08:55.383Z,90.90
2022-09-15T13:11:34.725Z,93.15
2022-09-15T13:14:04.082Z,92.74
2022-09-15T13:16:59.595Z,92.62
2022-09-15T13:19:41.367Z,94.47
2022-09-15T13:22:19.866Z,95.60
2022-09-15T13:24:46.220Z,97.27
2022-09-15T13:27:14.045Z,97.96
2022-09-15T13:29:49.399Z,99.23
2022-09-15T13:32:34.287Z,100.00
2022-09-15T13:35:18.358Z,100.00
2022-09-15T13:38:22.110Z,100.00
2022-09-15T13:41:12.941Z,100.00
2022-09-15T13:43:59.654Z,100.00
2022-09-15T13:46:59.608Z,100.00
2022-09-15T13:49:44.175Z,100.00
2022-09-15T13:52:22.164Z,100.00
2022-09-15T13:55:29.776Z,100.00
2022-09-15T14:00:54.241Z,98.59
2022-09-15T14:03:37.161Z,100.00
2022-09-15T14:06:22.304Z,100.00
2022-09-15T14:08:57.090Z,100.00
2022-09-15T14:11:32.643Z,99.32
2022-09-15T14:14:00.672Z,100.00
2022-09-15T14:16:27.854Z,100.00
2022-09-15T14:18:57.551Z,99.75
2022-09-15T14:21:34.560Z,100.00
2022-09-15T14:24:14.652Z,100.00
2022-09-15T14:26:41.057Z,100.00
2022-09-15T14:29:07.518Z,100.00
2022-09-15T14:31:40.989Z,100.00
2022-09-15T14:34:26.977Z,100.00
2022-09-15T14:37:01.915Z,100.00
2022-09-15T14:39:28.494Z,100.00
2022-09-15T14:41:55.076Z,97.08
2022-09-15T14:47:27.981Z,98.68
2022-09-15T14:50:09.769Z,93.02
2022-09-15T14:52:41.383Z,95.71
2022-09-15T14:55:14.069Z,93.81
2022-09-15T14:57:46.149Z,96.12
2022-09-15T15:00:19.404Z,93.52
2022-09-15T15:03:03.638Z,94.02
2022-09-15T15:05:47.758Z,91.06
2022-09-15T15:08:27.379Z,91.43
2022-09-15T15:10:54.302Z,92.23
2022-09-15T15:13:21.210Z,92.35
2022-09-15T15:15:47.936Z,93.60
2022-09-15T15:18:46.867Z,91.13
2022-09-15T15:21:36.258Z,93.39
2022-09-15T15:24:17.327Z,92.40
2022-09-15T15:26:47.922Z,94.58
2022-09-15T15:29:46.058Z,92.38
2022-09-15T15:32:20.319Z,92.24
2022-09-15T15:34:55.912Z,92.20
2022-09-15T15:37:28.963Z,92.83
2022-09-15T15:39:57.715Z,93.67
2022-09-15T15:42:24.812Z,89.08
2022-09-15T15:45:20.083Z,89.56
2022-09-15T15:47:46.478Z,91.00
2022-09-15T15:50:21.828Z,91.88
2022-09-15T15:52:49.548Z,91.16
2022-09-15T15:55:24.251Z,91.90
2022-09-15T15:57:53.586Z,91.22
2022-09-15T16:00:29.643Z,89.71
2022-09-15T16:02:56.287Z,92.17
2022-09-15T16:05:27.627Z,91.02
2022-09-15T16:07:56.098Z,92.28
2022-09-15T16:10:24.477Z,91.34
2022-09-15T16:12:50.913Z,91.07
2022-09-15T16:15:20.373Z,90.43
2022-09-15T16:17:47.482Z,91.48
2022-09-15T16:20:25.117Z,91.83
2022-09-15T16:22:52.333Z,91.14
2022-09-15T16:25:28.688Z,90.91
2022-09-15T16:27:55.346Z,92.27
2022-09-15T16:30:21.751Z,92.09
2022-09-15T16:32:48.133Z,91.89
2022-09-15T16:35:33.274Z,91.46
2022-09-15T16:37:59.784Z,91.68
2022-09-15T16:40:26.423Z,91.92
2022-09-15T16:42:52.932Z,94.86
2022-09-15T16:45:25.866Z,92.05
2022-09-15T16:47:52.349Z,93.37
2022-09-15T16:50:18.753Z,92.96
2022-09-15T16:52:45.204Z,94.71
2022-09-15T16:55:23.418Z,93.56
2022-09-15T16:57:50.516Z,94.06
2022-09-15T17:00:17.501Z,93.85
2022-09-15T17:02:43.893Z,93.85
2022-09-15T17:05:32.798Z,94.84
2022-09-15T17:07:59.237Z,95.76
2022-09-15T17:10:25.824Z,95.94
2022-09-15T17:12:52.446Z,96.00
2022-09-15T17:15:24.449Z,96.94
2022-09-15T17:17:50.956Z,97.24
2022-09-15T17:20:18.991Z,97.69
2022-09-15T17:22:47.098Z,97.80
2022-09-15T17:25:34.935Z,98.13
2022-09-15T17:28:02.406Z,98.90
2022-09-15T17:30:32.204Z,99.47
2022-09-15T17:33:12.169Z,99.49
2022-09-15T17:35:38.894Z,99.09
2022-09-15T17:38:06.172Z,99.99
2022-09-15T17:40:33.700Z,100.00
2022-09-15T17:43:00.870Z,100.00
2022-09-15T17:45:30.103Z,100.00
2022-09-15T17:47:56.702Z,100.00
2022-09-15T17:50:25.306Z,100.00
2022-09-15T17:52:51.757Z,100.00
2022-09-15T17:55:36.349Z,100.00
2022-09-15T17:58:03.126Z,100.00
2022-09-15T18:00:35.439Z,100.00
2022-09-15T18:03:05.381Z,100.00
2022-09-15T18:05:34.560Z,100.00
2022-09-15T18:08:03.657Z,100.00
2022-09-15T18:10:32.082Z,100.00
2022-09-15T18:12:59.030Z,100.00
2022-09-15T18:15:28.250Z,100.00
2022-09-15T18:17:57.146Z,100.00
2022-09-15T18:20:28.650Z,100.00
2022-09-15T18:22:56.318Z,100.00
2022-09-15T18:25:27.209Z,100.00
2022-09-15T18:27:54.166Z,100.00
2022-09-15T18:30:23.153Z,100.00
2022-09-15T18:32:49.672Z,100.00
2022-09-15T18:35:18.867Z,100.00
2022-09-15T18:37:46.816Z,100.00
2022-09-15T18:40:16.297Z,100.00
2022-09-15T18:42:43.779Z,100.00
2022-09-15T18:45:13.221Z,100.00
2022-09-15T18:47:40.953Z,100.00
2022-09-15T18:50:07.799Z,100.00
2022-09-15T18:52:39.760Z,100.00
2022-09-15T18:55:08.078Z,100.00
2022-09-15T18:57:39.514Z,100.00
2022-09-15T19:00:12.512Z,100.00
2022-09-15T19:02:39.387Z,100.00
2022-09-15T19:05:07.347Z,100.00
2022-09-15T19:07:33.796Z,100.00
2022-09-15T19:10:00.659Z,100.00
2022-09-15T19:12:27.149Z,100.00
2022-09-15T19:14:53.629Z,100.00
2022-09-15T19:17:20.074Z,100.00
2022-09-15T19:19:46.484Z,100.00
2022-09-15T19:22:13.108Z,100.00
2022-09-15T19:24:39.539Z,100.00
2022-09-15T19:27:07.750Z,100.00
2022-09-15T19:29:36.145Z,100.00
2022-09-15T19:32:05.115Z,100.00
2022-09-15T19:34:31.723Z,100.00
2022-09-15T19:36:58.195Z,100.00
2022-09-15T19:39:24.634Z,100.00
2022-09-15T19:41:51.602Z,100.00
2022-09-15T19:44:18.075Z,100.00
2022-09-15T19:46:44.606Z,100.00
2022-09-15T19:49:11.465Z,100.00
2022-09-15T19:51:38.282Z,100.00
2022-09-15T19:54:05.002Z,100.00
2022-09-15T19:56:31.675Z,100.00
2022-09-15T19:58:59.111Z,100.00
2022-09-15T20:01:28.500Z,100.00
2022-09-15T20:03:56.383Z,100.00
2022-09-15T20:06:27.604Z,100.00
2022-09-15T20:08:59.500Z,100.00
2022-09-15T20:11:27.730Z,100.00
2022-09-15T20:13:54.924Z,100.00
2022-09-15T20:16:23.126Z,100.00
2022-09-15T20:18:51.221Z,100.00
2022-09-15T20:21:38.827Z,100.00
2022-09-15T20:24:08.309Z,100.00
2022-09-15T20:26:34.832Z,100.00
2022-09-15T20:29:02.519Z,100.00
2022-09-15T20:31:30.281Z,100.00
2022-09-15T20:33:56.707Z,100.00
2022-09-15T20:36:27.438Z,100.00
2022-09-15T20:38:54.544Z,100.00
2022-09-15T20:41:24.365Z,100.00
2022-09-15T20:43:51.309Z,100.00
2022-09-15T20:46:19.896Z,100.00
2022-09-15T20:48:46.902Z,100.00
2022-09-15T20:51:15.895Z,100.00
2022-09-15T20:53:47.644Z,100.00
2022-09-15T20:56:15.402Z,100.00
2022-09-15T20:58:42.431Z,100.00
2022-09-15T21:01:13.619Z,100.00
2022-09-15T21:03:42.318Z,100.00
2022-09-15T21:06:11.325Z,100.00
2022-09-15T21:08:37.851Z,100.00
2022-09-15T21:11:05.833Z,100.00
2022-09-15T21:13:36.176Z,100.00
2022-09-15T21:16:07.796Z,100.00
2022-09-15T21:18:38.908Z,100.00
2022-09-15T21:21:16.167Z,100.00
2022-09-15T21:23:43.710Z,100.00
2022-09-15T21:26:13.003Z,100.00
2022-09-15T21:28:39.682Z,100.00
2022-09-15T21:31:09.027Z,100.00
2022-09-15T21:33:36.563Z,100.00
2022-09-15T21:36:10.422Z,100.00
2022-09-15T21:38:39.015Z,100.00
2022-09-15T21:41:06.282Z,100.00
2022-09-15T21:43:36.011Z,100.00
2022-09-15T21:46:04.788Z,100.00
2022-09-15T21:48:35.288Z,100.00
2022-09-15T21:51:03.911Z,100.00
2022-09-15T21:53:30.543Z,100.00
2022-09-15T21:56:00.993Z,100.00
2022-09-15T21:58:31.959Z,100.00
2022-09-15T22:00:58.428Z,100.00
2022-09-15T22:03:24.900Z,100.00
2022-09-15T22:05:51.846Z,100.00
2022-09-15T22:08:18.349Z,100.00
2022-09-15T22:10:44.872Z,100.00
2022-09-15T22:13:11.744Z,100.00
2022-09-15T22:15:38.190Z,100.00
2022-09-15T22:18:04.798Z,100.00
2022-09-15T22:20:31.227Z,100.00
2022-09-15T22:23:00.671Z,100.00
2022-09-15T22:25:27.383Z,100.00
2022-09-15T22:27:53.781Z,100.00
2022-09-15T22:30:20.202Z,100.00
2022-09-15T22:32:46.693Z,100.00
2022-09-15T22:35:13.260Z,100.00
2022-09-15T22:37:39.756Z,100.00
2022-09-15T22:40:06.651Z,100.00
2022-09-15T22:42:33.080Z,100.00
2022-09-15T22:44:59.557Z,100.00
2022-09-15T22:47:25.979Z,100.00
2022-09-15T22:49:52.442Z,100.00
2022-09-15T22:52:19.671Z,100.00
2022-09-15T22:54:46.196Z,100.00
2022-09-15T22:57:12.597Z,100.00
2022-09-15T22:59:39.085Z,100.00
2022-09-15T23:02:05.615Z,100.00
2022-09-15T23:04:32.104Z,100.00
2022-09-15T23:06:58.536Z,100.00
2022-09-15T23:09:24.947Z,100.00
2022-09-15T23:11:51.360Z,100.00
2022-09-15T23:14:18.088Z,100.00
2022-09-15T23:16:44.806Z,100.00
2022-09-15T23:19:13.146Z,100.00
2022-09-15T23:21:40.034Z,100.00
2022-09-15T23:24:06.736Z,100.00
2022-09-15T23:26:33.198Z,100.00
2022-09-15T23:28:59.644Z,100.00
2022-09-15T23:31:26.132Z,100.00
2022-09-15T23:33:52.588Z,100.00
2022-09-15T23:36:19.747Z,100.00
2022-09-15T23:38:46.902Z,100.00
2022-09-15T23:41:14.556Z,100.00
2022-09-15T23:43:41.135Z,100.00
2022-09-15T23:46:07.869Z,100.00
2022-09-15T23:48:34.790Z,100.00
2022-09-15T23:51:02.056Z,100.00
2022-09-15T23:53:29.443Z,100.00
2022-09-15T23:55:56.578Z,100.00
2022-09-15T23:58:23.088Z,100.00
